Terminal Aerodrome Forecast
Issued by NWS

Home | Current Version | Previous Version | Text Only | Print | Product List | Glossary Off
Versions: 1 2 3 4 5 6 7 8 9 10 11 12 13 14 15

000
FTUS43 KMPX 182347
TAFRNH
TAF
KRNH 182347Z 1900/1924 01010KT P6SM OVC250
     FM190200 02009KT P6SM BKN250
     FM191000 34004KT P6SM BKN250
     FM191900 30005KT P6SM SCT250=

USA.gov is the U.S. government's official web portal to all federal, state and local government web resources and services.